sensor_id;sensor_type;location;lat;lon;timestamp;P1;durP1;ratioP1;P2;durP2;ratioP2
77726;SDS011;68312;53.502;10.030;2023-03-31T00:00:42;12.07;;;2.92;;
77726;SDS011;68312;53.502;10.030;2023-03-31T00:03:10;9.55;;;2.13;;
77726;SDS011;68312;53.502;10.030;2023-03-31T00:05:37;14.15;;;3.30;;
77726;SDS011;68312;53.502;10.030;2023-03-31T00:08:03;8.38;;;2.00;;
77726;SDS011;68312;53.502;10.030;2023-03-31T00:10:30;12.15;;;2.50;;
77726;SDS011;68312;53.502;10.030;2023-03-31T00:12:59;12.18;;;2.47;;
77726;SDS011;68312;53.502;10.030;2023-03-31T00:15:26;14.57;;;2.30;;
77726;SDS011;68312;53.502;10.030;2023-03-31T00:17:53;12.07;;;2.22;;
77726;SDS011;68312;53.502;10.030;2023-03-31T00:20:19;11.90;;;2.10;;
77726;SDS011;68312;53.502;10.030;2023-03-31T00:22:44;15.38;;;2.17;;
77726;SDS011;68312;53.502;10.030;2023-03-31T00:25:10;9.35;;;2.53;;
77726;SDS011;68312;53.502;10.030;2023-03-31T00:27:43;12.10;;;2.42;;
77726;SDS011;68312;53.502;10.030;2023-03-31T00:30:10;11.45;;;2.30;;
77726;SDS011;68312;53.502;10.030;2023-03-31T00:32:38;9.15;;;2.00;;
77726;SDS011;68312;53.502;10.030;2023-03-31T00:35:04;10.52;;;2.03;;
77726;SDS011;68312;53.502;10.030;2023-03-31T00:37:30;14.73;;;2.45;;
77726;SDS011;68312;53.502;10.030;2023-03-31T00:39:59;16.65;;;2.38;;
77726;SDS011;68312;53.502;10.030;2023-03-31T00:42:25;7.88;;;1.92;;
77726;SDS011;68312;53.502;10.030;2023-03-31T00:48:13;12.40;;;2.42;;
77726;SDS011;68312;53.502;10.030;2023-03-31T00:50:44;12.40;;;2.10;;
77726;SDS011;68312;53.502;10.030;2023-03-31T00:53:27;15.68;;;2.30;;
77726;SDS011;68312;53.502;10.030;2023-03-31T00:55:58;13.38;;;2.03;;
77726;SDS011;68312;53.502;10.030;2023-03-31T00:58:38;12.38;;;2.47;;
77726;SDS011;68312;53.502;10.030;2023-03-31T01:01:09;12.93;;;2.20;;
77726;SDS011;68312;53.502;10.030;2023-03-31T01:03:43;11.02;;;2.40;;
77726;SDS011;68312;53.502;10.030;2023-03-31T01:06:11;10.68;;;2.22;;
77726;SDS011;68312;53.502;10.030;2023-03-31T01:08:40;13.38;;;2.60;;
77726;SDS011;68312;53.502;10.030;2023-03-31T01:11:09;16.25;;;2.20;;
77726;SDS011;68312;53.502;10.030;2023-03-31T01:13:43;8.02;;;1.88;;
77726;SDS011;68312;53.502;10.030;2023-03-31T01:16:14;8.75;;;2.08;;
77726;SDS011;68312;53.502;10.030;2023-03-31T01:18:41;15.98;;;2.33;;
77726;SDS011;68312;53.502;10.030;2023-03-31T01:24:56;11.45;;;1.98;;
77726;SDS011;68312;53.502;10.030;2023-03-31T01:31:34;12.50;;;2.13;;
77726;SDS011;68312;53.502;10.030;2023-03-31T01:34:56;10.55;;;1.80;;
77726;SDS011;68312;53.502;10.030;2023-03-31T01:58:58;6.60;;;2.22;;
77726;SDS011;68312;53.502;10.030;2023-03-31T02:01:42;12.82;;;2.97;;
77726;SDS011;68312;53.502;10.030;2023-03-31T02:04:25;13.55;;;2.80;;
77726;SDS011;68312;53.502;10.030;2023-03-31T02:07:09;8.80;;;2.65;;
77726;SDS011;68312;53.502;10.030;2023-03-31T02:09:47;11.95;;;3.38;;
77726;SDS011;68312;53.502;10.030;2023-03-31T02:12:21;11.07;;;2.60;;
77726;SDS011;68312;53.502;10.030;2023-03-31T02:14:53;12.18;;;3.90;;
77726;SDS011;68312;53.502;10.030;2023-03-31T02:17:24;9.93;;;2.85;;
77726;SDS011;68312;53.502;10.030;2023-03-31T02:19:54;15.20;;;3.42;;
77726;SDS011;68312;53.502;10.030;2023-03-31T02:22:30;14.80;;;2.70;;
77726;SDS011;68312;53.502;10.030;2023-03-31T02:25:03;10.13;;;3.65;;
77726;SDS011;68312;53.502;10.030;2023-03-31T02:30:09;13.07;;;3.35;;
77726;SDS011;68312;53.502;10.030;2023-03-31T02:32:38;13.07;;;3.10;;
77726;SDS011;68312;53.502;10.030;2023-03-31T02:35:13;8.93;;;2.70;;
77726;SDS011;68312;53.502;10.030;2023-03-31T02:37:45;8.82;;;2.60;;
77726;SDS011;68312;53.502;10.030;2023-03-31T02:40:17;8.93;;;2.92;;
77726;SDS011;68312;53.502;10.030;2023-03-31T02:42:46;13.67;;;3.47;;
77726;SDS011;68312;53.502;10.030;2023-03-31T02:48:05;8.07;;;2.80;;
77726;SDS011;68312;53.502;10.030;2023-03-31T03:12:32;12.63;;;3.90;;
77726;SDS011;68312;53.502;10.030;2023-03-31T03:15:47;13.40;;;3.33;;
77726;SDS011;68312;53.502;10.030;2023-03-31T03:18:25;9.63;;;3.42;;
77726;SDS011;68312;53.502;10.030;2023-03-31T03:20:51;7.75;;;2.95;;
77726;SDS011;68312;53.502;10.030;2023-03-31T03:23:17;11.88;;;2.97;;
77726;SDS011;68312;53.502;10.030;2023-03-31T03:25:43;10.27;;;2.70;;
77726;SDS011;68312;53.502;10.030;2023-03-31T03:28:10;11.40;;;3.03;;
77726;SDS011;68312;53.502;10.030;2023-03-31T03:30:35;6.57;;;2.70;;
77726;SDS011;68312;53.502;10.030;2023-03-31T03:33:01;10.60;;;3.17;;
77726;SDS011;68312;53.502;10.030;2023-03-31T03:35:30;11.55;;;2.97;;
77726;SDS011;68312;53.502;10.030;2023-03-31T03:37:57;12.90;;;3.33;;
77726;SDS011;68312;53.502;10.030;2023-03-31T03:40:22;16.50;;;3.63;;
77726;SDS011;68312;53.502;10.030;2023-03-31T03:42:48;9.88;;;3.42;;
77726;SDS011;68312;53.502;10.030;2023-03-31T03:45:13;11.60;;;3.67;;
77726;SDS011;68312;53.502;10.030;2023-03-31T03:47:39;10.75;;;3.20;;
77726;SDS011;68312;53.502;10.030;2023-03-31T03:50:05;10.75;;;3.35;;
77726;SDS011;68312;53.502;10.030;2023-03-31T03:52:31;8.60;;;3.20;;
77726;SDS011;68312;53.502;10.030;2023-03-31T03:54:57;10.93;;;3.28;;
77726;SDS011;68312;53.502;10.030;2023-03-31T03:57:22;11.45;;;3.30;;
77726;SDS011;68312;53.502;10.030;2023-03-31T03:59:48;14.05;;;3.97;;
77726;SDS011;68312;53.502;10.030;2023-03-31T04:02:13;11.57;;;3.72;;
77726;SDS011;68312;53.502;10.030;2023-03-31T04:04:39;10.85;;;3.20;;
77726;SDS011;68312;53.502;10.030;2023-03-31T04:07:04;9.45;;;3.25;;
77726;SDS011;68312;53.502;10.030;2023-03-31T04:09:30;11.57;;;3.47;;
77726;SDS011;68312;53.502;10.030;2023-03-31T04:11:56;12.88;;;3.45;;
77726;SDS011;68312;53.502;10.030;2023-03-31T04:14:21;9.77;;;3.65;;
77726;SDS011;68312;53.502;10.030;2023-03-31T04:16:48;12.93;;;4.28;;
77726;SDS011;68312;53.502;10.030;2023-03-31T04:19:13;12.57;;;4.07;;
77726;SDS011;68312;53.502;10.030;2023-03-31T04:21:41;13.43;;;4.28;;
77726;SDS011;68312;53.502;10.030;2023-03-31T04:24:09;7.85;;;3.95;;
77726;SDS011;68312;53.502;10.030;2023-03-31T04:26:39;15.65;;;4.68;;
77726;SDS011;68312;53.502;10.030;2023-03-31T04:29:10;14.48;;;5.00;;
77726;SDS011;68312;53.502;10.030;2023-03-31T04:31:40;11.88;;;4.47;;
77726;SDS011;68312;53.502;10.030;2023-03-31T04:34:11;18.75;;;5.47;;
77726;SDS011;68312;53.502;10.030;2023-03-31T04:36:43;15.20;;;5.20;;
77726;SDS011;68312;53.502;10.030;2023-03-31T04:39:12;13.18;;;5.18;;
77726;SDS011;68312;53.502;10.030;2023-03-31T04:41:51;12.98;;;5.97;;
77726;SDS011;68312;53.502;10.030;2023-03-31T04:44:18;13.02;;;5.53;;
77726;SDS011;68312;53.502;10.030;2023-03-31T04:46:44;15.18;;;5.53;;
77726;SDS011;68312;53.502;10.030;2023-03-31T04:49:10;12.65;;;5.45;;
77726;SDS011;68312;53.502;10.030;2023-03-31T04:51:35;14.27;;;5.97;;
77726;SDS011;68312;53.502;10.030;2023-03-31T04:54:01;11.80;;;4.47;;
77726;SDS011;68312;53.502;10.030;2023-03-31T04:56:27;15.32;;;5.53;;
77726;SDS011;68312;53.502;10.030;2023-03-31T04:58:52;14.75;;;5.50;;
77726;SDS011;68312;53.502;10.030;2023-03-31T05:01:18;15.98;;;6.65;;
77726;SDS011;68312;53.502;10.030;2023-03-31T05:03:44;16.65;;;6.07;;
77726;SDS011;68312;53.502;10.030;2023-03-31T05:06:12;12.82;;;5.68;;
77726;SDS011;68312;53.502;10.030;2023-03-31T05:08:40;16.10;;;5.60;;
77726;SDS011;68312;53.502;10.030;2023-03-31T05:11:06;15.88;;;5.15;;
77726;SDS011;68312;53.502;10.030;2023-03-31T05:13:31;16.50;;;5.75;;
77726;SDS011;68312;53.502;10.030;2023-03-31T05:15:57;18.52;;;5.50;;
77726;SDS011;68312;53.502;10.030;2023-03-31T05:18:22;16.58;;;5.32;;
77726;SDS011;68312;53.502;10.030;2023-03-31T05:20:48;14.90;;;4.95;;
77726;SDS011;68312;53.502;10.030;2023-03-31T05:23:13;11.43;;;4.47;;
77726;SDS011;68312;53.502;10.030;2023-03-31T05:25:39;10.88;;;4.82;;
77726;SDS011;68312;53.502;10.030;2023-03-31T05:28:07;15.35;;;4.70;;
77726;SDS011;68312;53.502;10.030;2023-03-31T05:30:36;15.10;;;4.47;;
77726;SDS011;68312;53.502;10.030;2023-03-31T05:33:01;20.17;;;4.80;;
77726;SDS011;68312;53.502;10.030;2023-03-31T05:35:27;9.25;;;4.15;;
77726;SDS011;68312;53.502;10.030;2023-03-31T05:37:53;10.02;;;4.35;;
77726;SDS011;68312;53.502;10.030;2023-03-31T05:40:19;10.55;;;4.47;;
77726;SDS011;68312;53.502;10.030;2023-03-31T05:42:45;10.95;;;4.80;;
77726;SDS011;68312;53.502;10.030;2023-03-31T05:45:10;9.00;;;4.45;;
77726;SDS011;68312;53.502;10.030;2023-03-31T05:47:36;15.70;;;4.75;;
77726;SDS011;68312;53.502;10.030;2023-03-31T05:50:02;11.05;;;4.20;;
77726;SDS011;68312;53.502;10.030;2023-03-31T05:52:31;12.80;;;4.13;;
77726;SDS011;68312;53.502;10.030;2023-03-31T05:54:57;13.38;;;4.07;;
77726;SDS011;68312;53.502;10.030;2023-03-31T05:57:23;11.57;;;3.80;;
77726;SDS011;68312;53.502;10.030;2023-03-31T05:59:48;10.48;;;4.43;;
77726;SDS011;68312;53.502;10.030;2023-03-31T06:02:14;10.95;;;4.43;;
77726;SDS011;68312;53.502;10.030;2023-03-31T06:04:39;8.85;;;3.55;;
77726;SDS011;68312;53.502;10.030;2023-03-31T06:07:06;13.32;;;4.60;;
77726;SDS011;68312;53.502;10.030;2023-03-31T06:09:32;8.30;;;3.60;;
77726;SDS011;68312;53.502;10.030;2023-03-31T06:11:57;10.23;;;4.80;;
77726;SDS011;68312;53.502;10.030;2023-03-31T06:14:23;8.88;;;3.78;;
77726;SDS011;68312;53.502;10.030;2023-03-31T06:16:49;9.88;;;3.90;;
77726;SDS011;68312;53.502;10.030;2023-03-31T06:19:14;10.80;;;3.78;;
77726;SDS011;68312;53.502;10.030;2023-03-31T06:21:40;16.48;;;4.30;;
77726;SDS011;68312;53.502;10.030;2023-03-31T06:24:07;7.80;;;3.55;;
77726;SDS011;68312;53.502;10.030;2023-03-31T06:26:34;11.30;;;3.78;;
77726;SDS011;68312;53.502;10.030;2023-03-31T06:29:00;11.05;;;3.83;;
77726;SDS011;68312;53.502;10.030;2023-03-31T06:31:25;10.77;;;3.83;;
77726;SDS011;68312;53.502;10.030;2023-03-31T06:33:51;10.63;;;3.75;;
77726;SDS011;68312;53.502;10.030;2023-03-31T06:36:18;10.45;;;3.70;;
77726;SDS011;68312;53.502;10.030;2023-03-31T06:38:46;12.77;;;4.28;;
77726;SDS011;68312;53.502;10.030;2023-03-31T06:41:14;10.73;;;3.65;;
77726;SDS011;68312;53.502;10.030;2023-03-31T06:43:42;10.25;;;3.47;;
77726;SDS011;68312;53.502;10.030;2023-03-31T06:46:09;12.00;;;4.43;;
77726;SDS011;68312;53.502;10.030;2023-03-31T06:48:35;12.15;;;3.90;;
77726;SDS011;68312;53.502;10.030;2023-03-31T06:51:01;10.15;;;3.83;;
77726;SDS011;68312;53.502;10.030;2023-03-31T06:53:31;14.80;;;3.85;;
77726;SDS011;68312;53.502;10.030;2023-03-31T06:55:57;8.20;;;3.53;;
77726;SDS011;68312;53.502;10.030;2023-03-31T06:58:23;8.05;;;3.15;;
77726;SDS011;68312;53.502;10.030;2023-03-31T07:00:49;9.70;;;3.88;;
77726;SDS011;68312;53.502;10.030;2023-03-31T07:03:15;13.93;;;4.00;;
77726;SDS011;68312;53.502;10.030;2023-03-31T07:05:50;10.93;;;3.60;;
77726;SDS011;68312;53.502;10.030;2023-03-31T07:08:17;8.38;;;3.08;;
77726;SDS011;68312;53.502;10.030;2023-03-31T07:10:46;10.15;;;3.78;;
77726;SDS011;68312;53.502;10.030;2023-03-31T07:13:14;10.68;;;3.65;;
77726;SDS011;68312;53.502;10.030;2023-03-31T07:15:41;8.90;;;3.22;;
77726;SDS011;68312;53.502;10.030;2023-03-31T07:18:10;7.65;;;3.67;;
77726;SDS011;68312;53.502;10.030;2023-03-31T07:20:36;10.25;;;3.28;;
77726;SDS011;68312;53.502;10.030;2023-03-31T07:23:03;12.07;;;3.78;;
77726;SDS011;68312;53.502;10.030;2023-03-31T07:25:30;12.70;;;3.55;;
77726;SDS011;68312;53.502;10.030;2023-03-31T07:27:55;8.30;;;2.95;;
77726;SDS011;68312;53.502;10.030;2023-03-31T07:30:21;8.48;;;3.08;;
77726;SDS011;68312;53.502;10.030;2023-03-31T07:32:49;7.85;;;2.63;;
77726;SDS011;68312;53.502;10.030;2023-03-31T07:35:16;5.32;;;2.65;;
77726;SDS011;68312;53.502;10.030;2023-03-31T07:37:44;8.35;;;3.05;;
77726;SDS011;68312;53.502;10.030;2023-03-31T07:40:15;10.35;;;3.05;;
77726;SDS011;68312;53.502;10.030;2023-03-31T07:42:50;9.88;;;3.00;;
77726;SDS011;68312;53.502;10.030;2023-03-31T07:45:16;8.63;;;2.90;;
77726;SDS011;68312;53.502;10.030;2023-03-31T07:47:45;9.98;;;3.30;;
77726;SDS011;68312;53.502;10.030;2023-03-31T07:50:12;9.35;;;2.75;;
77726;SDS011;68312;53.502;10.030;2023-03-31T07:52:39;11.00;;;2.55;;
77726;SDS011;68312;53.502;10.030;2023-03-31T07:55:06;6.80;;;2.90;;
77726;SDS011;68312;53.502;10.030;2023-03-31T07:57:34;8.98;;;3.00;;
77726;SDS011;68312;53.502;10.030;2023-03-31T08:00:02;8.65;;;2.75;;
77726;SDS011;68312;53.502;10.030;2023-03-31T08:02:34;6.80;;;2.67;;
77726;SDS011;68312;53.502;10.030;2023-03-31T08:05:00;9.10;;;2.85;;
77726;SDS011;68312;53.502;10.030;2023-03-31T08:07:25;6.53;;;2.70;;
77726;SDS011;68312;53.502;10.030;2023-03-31T08:09:54;9.75;;;3.13;;
77726;SDS011;68312;53.502;10.030;2023-03-31T08:12:21;9.48;;;2.67;;
77726;SDS011;68312;53.502;10.030;2023-03-31T08:14:47;7.40;;;2.70;;
77726;SDS011;68312;53.502;10.030;2023-03-31T08:17:12;6.25;;;2.47;;
77726;SDS011;68312;53.502;10.030;2023-03-31T08:19:38;8.70;;;2.67;;
77726;SDS011;68312;53.502;10.030;2023-03-31T08:22:04;6.05;;;2.97;;
77726;SDS011;68312;53.502;10.030;2023-03-31T08:24:29;10.85;;;2.60;;
77726;SDS011;68312;53.502;10.030;2023-03-31T08:26:55;6.32;;;2.50;;
77726;SDS011;68312;53.502;10.030;2023-03-31T08:29:21;5.70;;;2.38;;
77726;SDS011;68312;53.502;10.030;2023-03-31T08:31:46;5.45;;;3.00;;
77726;SDS011;68312;53.502;10.030;2023-03-31T08:34:12;8.50;;;2.47;;
77726;SDS011;68312;53.502;10.030;2023-03-31T08:36:37;6.55;;;2.35;;
77726;SDS011;68312;53.502;10.030;2023-03-31T08:39:03;5.82;;;2.40;;
77726;SDS011;68312;53.502;10.030;2023-03-31T08:47:06;8.75;;;2.65;;
77726;SDS011;68312;53.502;10.030;2023-03-31T08:49:47;9.48;;;2.92;;
77726;SDS011;68312;53.502;10.030;2023-03-31T08:52:23;6.97;;;2.22;;
77726;SDS011;68312;53.502;10.030;2023-03-31T08:55:02;8.13;;;2.40;;
77726;SDS011;68312;53.502;10.030;2023-03-31T08:57:39;7.82;;;2.10;;
77726;SDS011;68312;53.502;10.030;2023-03-31T09:03:33;6.13;;;1.95;;
77726;SDS011;68312;53.502;10.030;2023-03-31T09:06:49;6.65;;;2.13;;
77726;SDS011;68312;53.502;10.030;2023-03-31T09:09:38;6.00;;;2.00;;
77726;SDS011;68312;53.502;10.030;2023-03-31T09:12:48;6.60;;;1.83;;
77726;SDS011;68312;53.502;10.030;2023-03-31T09:16:14;8.77;;;2.00;;
77726;SDS011;68312;53.502;10.030;2023-03-31T09:18:51;10.45;;;2.03;;
77726;SDS011;68312;53.502;10.030;2023-03-31T09:21:26;8.52;;;1.90;;
77726;SDS011;68312;53.502;10.030;2023-03-31T09:24:09;5.40;;;2.05;;
77726;SDS011;68312;53.502;10.030;2023-03-31T09:26:56;6.40;;;2.35;;
77726;SDS011;68312;53.502;10.030;2023-03-31T09:32:30;7.13;;;1.80;;
77726;SDS011;68312;53.502;10.030;2023-03-31T09:34:59;6.18;;;1.92;;
77726;SDS011;68312;53.502;10.030;2023-03-31T09:37:41;5.07;;;1.85;;
77726;SDS011;68312;53.502;10.030;2023-03-31T09:40:06;6.60;;;1.95;;
77726;SDS011;68312;53.502;10.030;2023-03-31T09:42:45;5.07;;;1.85;;
77726;SDS011;68312;53.502;10.030;2023-03-31T09:45:59;5.60;;;2.08;;
77726;SDS011;68312;53.502;10.030;2023-03-31T09:48:28;5.00;;;2.00;;
77726;SDS011;68312;53.502;10.030;2023-03-31T09:51:02;4.07;;;1.57;;
77726;SDS011;68312;53.502;10.030;2023-03-31T09:53:46;6.97;;;1.83;;
77726;SDS011;68312;53.502;10.030;2023-03-31T09:59:11;3.92;;;1.80;;
77726;SDS011;68312;53.502;10.030;2023-03-31T10:01:44;6.28;;;1.70;;
77726;SDS011;68312;53.502;10.030;2023-03-31T10:04:17;5.13;;;2.38;;
77726;SDS011;68312;53.502;10.030;2023-03-31T10:06:49;11.38;;;2.47;;
77726;SDS011;68312;53.502;10.030;2023-03-31T10:09:19;5.97;;;1.75;;
77726;SDS011;68312;53.502;10.030;2023-03-31T10:12:33;4.20;;;2.10;;
77726;SDS011;68312;53.502;10.030;2023-03-31T10:14:52;6.35;;;1.88;;
77726;SDS011;68312;53.502;10.030;2023-03-31T10:17:27;5.35;;;2.15;;
77726;SDS011;68312;53.502;10.030;2023-03-31T10:19:55;5.43;;;1.85;;
77726;SDS011;68312;53.502;10.030;2023-03-31T10:22:44;7.50;;;1.80;;
77726;SDS011;68312;53.502;10.030;2023-03-31T10:25:17;2.97;;;2.00;;
77726;SDS011;68312;53.502;10.030;2023-03-31T10:27:52;6.50;;;1.77;;
77726;SDS011;68312;53.502;10.030;2023-03-31T10:30:23;4.15;;;1.95;;
77726;SDS011;68312;53.502;10.030;2023-03-31T10:32:55;5.35;;;1.67;;
77726;SDS011;68312;53.502;10.030;2023-03-31T10:35:29;3.88;;;1.52;;
77726;SDS011;68312;53.502;10.030;2023-03-31T10:38:01;6.53;;;1.60;;
77726;SDS011;68312;53.502;10.030;2023-03-31T10:40:34;3.70;;;1.70;;
77726;SDS011;68312;53.502;10.030;2023-03-31T10:43:08;3.78;;;1.45;;
77726;SDS011;68312;53.502;10.030;2023-03-31T10:45:50;6.00;;;1.80;;
77726;SDS011;68312;53.502;10.030;2023-03-31T10:50:54;7.03;;;1.50;;
77726;SDS011;68312;53.502;10.030;2023-03-31T10:53:40;3.92;;;1.55;;
77726;SDS011;68312;53.502;10.030;2023-03-31T10:59:18;2.53;;;1.30;;
77726;SDS011;68312;53.502;10.030;2023-03-31T11:05:28;4.47;;;1.70;;
77726;SDS011;68312;53.502;10.030;2023-03-31T11:14:31;7.68;;;1.98;;
77726;SDS011;68312;53.502;10.030;2023-03-31T11:20:22;4.10;;;1.48;;
77726;SDS011;68312;53.502;10.030;2023-03-31T11:23:49;5.78;;;1.48;;
77726;SDS011;68312;53.502;10.030;2023-03-31T11:36:21;4.43;;;1.35;;
77726;SDS011;68312;53.502;10.030;2023-03-31T11:39:37;5.95;;;1.42;;
77726;SDS011;68312;53.502;10.030;2023-03-31T11:42:49;2.75;;;1.23;;
77726;SDS011;68312;53.502;10.030;2023-03-31T11:49:05;5.18;;;1.65;;
77726;SDS011;68312;53.502;10.030;2023-03-31T11:51:53;5.93;;;1.92;;
77726;SDS011;68312;53.502;10.030;2023-03-31T12:03:12;4.65;;;1.90;;
77726;SDS011;68312;53.502;10.030;2023-03-31T12:06:15;3.70;;;1.80;;
77726;SDS011;68312;53.502;10.030;2023-03-31T12:09:09;2.92;;;1.80;;
77726;SDS011;68312;53.502;10.030;2023-03-31T12:11:59;5.38;;;1.83;;
77726;SDS011;68312;53.502;10.030;2023-03-31T12:15:02;3.92;;;1.90;;
77726;SDS011;68312;53.502;10.030;2023-03-31T12:18:07;6.80;;;2.13;;
77726;SDS011;68312;53.502;10.030;2023-03-31T12:20:44;6.53;;;2.67;;
77726;SDS011;68312;53.502;10.030;2023-03-31T12:23:21;3.20;;;1.92;;
77726;SDS011;68312;53.502;10.030;2023-03-31T12:28:58;6.13;;;2.20;;
77726;SDS011;68312;53.502;10.030;2023-03-31T12:31:36;3.63;;;2.03;;
77726;SDS011;68312;53.502;10.030;2023-03-31T12:34:12;6.93;;;2.53;;
77726;SDS011;68312;53.502;10.030;2023-03-31T12:42:46;5.57;;;2.10;;
77726;SDS011;68312;53.502;10.030;2023-03-31T12:45:47;3.40;;;1.85;;
77726;SDS011;68312;53.502;10.030;2023-03-31T12:51:52;3.38;;;1.92;;
77726;SDS011;68312;53.502;10.030;2023-03-31T12:57:25;6.28;;;2.30;;
77726;SDS011;68312;53.502;10.030;2023-03-31T13:00:15;4.78;;;2.28;;
77726;SDS011;68312;53.502;10.030;2023-03-31T13:09:37;4.55;;;2.03;;
77726;SDS011;68312;53.502;10.030;2023-03-31T13:11:57;3.95;;;2.22;;
77726;SDS011;68312;53.502;10.030;2023-03-31T13:14:35;7.03;;;2.33;;
77726;SDS011;68312;53.502;10.030;2023-03-31T13:17:25;7.40;;;2.53;;
77726;SDS011;68312;53.502;10.030;2023-03-31T13:23:06;5.85;;;2.45;;
77726;SDS011;68312;53.502;10.030;2023-03-31T13:25:45;3.72;;;1.83;;
77726;SDS011;68312;53.502;10.030;2023-03-31T13:30:46;6.47;;;1.95;;
77726;SDS011;68312;53.502;10.030;2023-03-31T13:54:14;3.92;;;1.65;;
77726;SDS011;68312;53.502;10.030;2023-03-31T13:57:45;3.15;;;1.45;;
77726;SDS011;68312;53.502;10.030;2023-03-31T14:07:22;3.88;;;1.48;;
77726;SDS011;68312;53.502;10.030;2023-03-31T14:10:29;4.45;;;1.77;;
77726;SDS011;68312;53.502;10.030;2023-03-31T14:18:25;2.90;;;1.52;;
77726;SDS011;68312;53.502;10.030;2023-03-31T14:21:11;1.73;;;1.25;;
77726;SDS011;68312;53.502;10.030;2023-03-31T14:23:56;3.10;;;1.40;;
77726;SDS011;68312;53.502;10.030;2023-03-31T14:27:22;2.67;;;1.50;;
77726;SDS011;68312;53.502;10.030;2023-03-31T14:31:06;3.90;;;1.73;;
77726;SDS011;68312;53.502;10.030;2023-03-31T14:39:10;4.45;;;1.83;;
77726;SDS011;68312;53.502;10.030;2023-03-31T14:41:45;3.03;;;1.70;;
77726;SDS011;68312;53.502;10.030;2023-03-31T14:44:19;2.13;;;1.35;;
77726;SDS011;68312;53.502;10.030;2023-03-31T14:46:46;4.68;;;1.70;;
77726;SDS011;68312;53.502;10.030;2023-03-31T14:49:25;2.88;;;1.45;;
77726;SDS011;68312;53.502;10.030;2023-03-31T14:52:04;2.55;;;1.27;;
77726;SDS011;68312;53.502;10.030;2023-03-31T14:54:42;3.15;;;1.13;;
77726;SDS011;68312;53.502;10.030;2023-03-31T14:57:12;2.50;;;1.30;;
77726;SDS011;68312;53.502;10.030;2023-03-31T14:59:52;3.20;;;1.35;;
77726;SDS011;68312;53.502;10.030;2023-03-31T15:02:22;4.95;;;1.50;;
77726;SDS011;68312;53.502;10.030;2023-03-31T15:05:00;1.90;;;0.98;;
77726;SDS011;68312;53.502;10.030;2023-03-31T15:07:34;1.98;;;1.17;;
77726;SDS011;68312;53.502;10.030;2023-03-31T15:10:02;3.72;;;1.00;;
77726;SDS011;68312;53.502;10.030;2023-03-31T15:12:30;3.33;;;1.20;;
77726;SDS011;68312;53.502;10.030;2023-03-31T15:14:57;2.08;;;1.00;;
77726;SDS011;68312;53.502;10.030;2023-03-31T15:20:24;3.55;;;1.10;;
77726;SDS011;68312;53.502;10.030;2023-03-31T15:23:02;2.40;;;1.02;;
77726;SDS011;68312;53.502;10.030;2023-03-31T15:25:55;1.90;;;1.05;;
77726;SDS011;68312;53.502;10.030;2023-03-31T15:28:34;2.25;;;0.80;;
77726;SDS011;68312;53.502;10.030;2023-03-31T15:31:31;5.45;;;1.45;;
77726;SDS011;68312;53.502;10.030;2023-03-31T15:33:57;1.83;;;1.00;;
77726;SDS011;68312;53.502;10.030;2023-03-31T15:36:23;3.03;;;1.08;;
77726;SDS011;68312;53.502;10.030;2023-03-31T15:38:54;1.95;;;1.00;;
77726;SDS011;68312;53.502;10.030;2023-03-31T15:41:23;2.75;;;1.00;;
77726;SDS011;68312;53.502;10.030;2023-03-31T15:44:42;2.10;;;0.93;;
77726;SDS011;68312;53.502;10.030;2023-03-31T15:47:19;2.67;;;1.02;;
77726;SDS011;68312;53.502;10.030;2023-03-31T15:58:07;1.95;;;0.90;;
77726;SDS011;68312;53.502;10.030;2023-03-31T16:03:22;2.15;;;1.10;;
77726;SDS011;68312;53.502;10.030;2023-03-31T16:06:05;2.08;;;1.00;;
77726;SDS011;68312;53.502;10.030;2023-03-31T16:09:08;4.13;;;1.08;;
77726;SDS011;68312;53.502;10.030;2023-03-31T16:12:17;3.95;;;1.33;;
77726;SDS011;68312;53.502;10.030;2023-03-31T16:17:37;2.63;;;1.13;;
77726;SDS011;68312;53.502;10.030;2023-03-31T16:20:35;1.83;;;1.00;;
77726;SDS011;68312;53.502;10.030;2023-03-31T16:23:13;2.75;;;1.20;;
77726;SDS011;68312;53.502;10.030;2023-03-31T16:25:45;2.40;;;1.15;;
77726;SDS011;68312;53.502;10.030;2023-03-31T16:28:15;1.85;;;1.20;;
77726;SDS011;68312;53.502;10.030;2023-03-31T16:30:47;2.92;;;1.50;;
77726;SDS011;68312;53.502;10.030;2023-03-31T16:33:14;3.47;;;1.10;;
77726;SDS011;68312;53.502;10.030;2023-03-31T16:35:45;2.40;;;1.10;;
77726;SDS011;68312;53.502;10.030;2023-03-31T16:38:20;2.28;;;1.17;;
77726;SDS011;68312;53.502;10.030;2023-03-31T16:40:49;2.35;;;1.23;;
77726;SDS011;68312;53.502;10.030;2023-03-31T16:43:20;2.92;;;1.33;;
77726;SDS011;68312;53.502;10.030;2023-03-31T16:45:55;2.45;;;1.17;;
77726;SDS011;68312;53.502;10.030;2023-03-31T16:48:26;3.03;;;1.35;;
77726;SDS011;68312;53.502;10.030;2023-03-31T16:50:54;2.97;;;1.20;;
77726;SDS011;68312;53.502;10.030;2023-03-31T16:53:24;3.40;;;1.45;;
77726;SDS011;68312;53.502;10.030;2023-03-31T16:56:00;4.32;;;2.15;;
77726;SDS011;68312;53.502;10.030;2023-03-31T16:58:34;4.53;;;2.10;;
77726;SDS011;68312;53.502;10.030;2023-03-31T17:01:02;5.28;;;2.30;;
77726;SDS011;68312;53.502;10.030;2023-03-31T17:03:31;3.58;;;1.88;;
77726;SDS011;68312;53.502;10.030;2023-03-31T17:06:02;3.28;;;1.80;;
77726;SDS011;68312;53.502;10.030;2023-03-31T17:08:33;3.20;;;1.50;;
77726;SDS011;68312;53.502;10.030;2023-03-31T17:11:00;4.00;;;2.15;;
77726;SDS011;68312;53.502;10.030;2023-03-31T17:13:31;4.20;;;1.75;;
77726;SDS011;68312;53.502;10.030;2023-03-31T17:15:58;4.85;;;1.40;;
77726;SDS011;68312;53.502;10.030;2023-03-31T17:18:25;4.45;;;1.40;;
77726;SDS011;68312;53.502;10.030;2023-03-31T17:20:51;1.80;;;0.90;;
77726;SDS011;68312;53.502;10.030;2023-03-31T17:23:18;5.13;;;1.65;;
77726;SDS011;68312;53.502;10.030;2023-03-31T17:25:46;4.32;;;1.98;;
77726;SDS011;68312;53.502;10.030;2023-03-31T17:28:16;3.92;;;1.90;;
77726;SDS011;68312;53.502;10.030;2023-03-31T17:30:42;3.83;;;2.13;;
77726;SDS011;68312;53.502;10.030;2023-03-31T17:33:11;2.88;;;1.70;;
77726;SDS011;68312;53.502;10.030;2023-03-31T17:35:39;2.47;;;1.25;;
77726;SDS011;68312;53.502;10.030;2023-03-31T17:38:05;3.00;;;1.60;;
77726;SDS011;68312;53.502;10.030;2023-03-31T17:40:33;4.10;;;1.67;;
77726;SDS011;68312;53.502;10.030;2023-03-31T17:42:59;3.42;;;1.70;;
77726;SDS011;68312;53.502;10.030;2023-03-31T17:45:27;4.25;;;2.00;;
77726;SDS011;68312;53.502;10.030;2023-03-31T17:47:54;7.63;;;2.03;;
77726;SDS011;68312;53.502;10.030;2023-03-31T17:50:20;3.05;;;1.73;;
77726;SDS011;68312;53.502;10.030;2023-03-31T17:52:46;6.40;;;2.80;;
77726;SDS011;68312;53.502;10.030;2023-03-31T17:55:12;3.25;;;1.95;;
77726;SDS011;68312;53.502;10.030;2023-03-31T17:57:38;2.88;;;1.65;;
77726;SDS011;68312;53.502;10.030;2023-03-31T18:00:04;2.90;;;1.80;;
77726;SDS011;68312;53.502;10.030;2023-03-31T18:02:37;3.30;;;1.55;;
77726;SDS011;68312;53.502;10.030;2023-03-31T18:05:05;3.28;;;2.00;;
77726;SDS011;68312;53.502;10.030;2023-03-31T18:07:33;4.55;;;2.03;;
77726;SDS011;68312;53.502;10.030;2023-03-31T18:10:00;2.35;;;1.65;;
77726;SDS011;68312;53.502;10.030;2023-03-31T18:12:29;3.17;;;1.70;;
77726;SDS011;68312;53.502;10.030;2023-03-31T18:14:56;3.08;;;1.65;;
77726;SDS011;68312;53.502;10.030;2023-03-31T18:17:22;3.15;;;1.80;;
77726;SDS011;68312;53.502;10.030;2023-03-31T18:19:48;3.40;;;1.90;;
77726;SDS011;68312;53.502;10.030;2023-03-31T18:22:14;3.35;;;2.20;;
77726;SDS011;68312;53.502;10.030;2023-03-31T18:24:40;2.92;;;1.70;;